Bookmark and Share
Track history (hours):
 

Zero Trim

More information available from US FCC via Universal Licensing System and Coast Guard Vessel Documentation Center.

Last reported at 2014-Apr-13 21:09 UTC. Time now 2014-Apr-24 14:13 UTC.
Position N 47°39' W 122°13'.
Warning: this ship's position is 10 days out of date.

Length 23 m.

Type: Pleasure craft. MMSI: 366747760.

NotesDate/timePositionNaut miles runAvg speedWind from/ knotsBaromVisibWave heightAir tempDewpointWater temp
2014-Apr-13 21:09N 47°39' W 122°13'0 0.3
2014-Apr-13 20:32N 47°39' W 122°13'6 6.3
2014-Apr-13 19:33N 47°39' W 122°22'1 1.4
2014-Apr-13 18:29N 47°40' W 122°24'5 5.5
2014-Apr-13 17:33N 47°35' W 122°27'1111.1
2014-Apr-13 16:33N 47°25' W 122°32'5 0.1
2014-Apr-11 17:33N 47°20' W 122°34'1110.8
2014-Apr-11 16:33N 47°30' W 122°30'411.2
2014-Apr-11 16:13N 47°34' W 122°28'4 5.1
2014-Apr-11 15:27N 47°37' W 122°31'0 0.0
2014-Apr-11 14:33N 47°37' W 122°31'0 0.0
2014-Apr-11 13:33N 47°37' W 122°31'0 0.0
2014-Apr-11 12:33N 47°37' W 122°31'0 0.0
2014-Apr-11 11:27N 47°37' W 122°31'0 0.0
2014-Apr-11 10:33N 47°37' W 122°31'0 0.0
2014-Apr-11 09:33N 47°37' W 122°31'0 0.0
2014-Apr-11 08:33N 47°37' W 122°31'0 0.0
2014-Apr-11 07:33N 47°37' W 122°31'0 0.0
2014-Apr-11 06:33N 47°37' W 122°31'0 0.0
2014-Apr-11 05:33N 47°37' W 122°31'0 0.0
2014-Apr-11 04:33N 47°37' W 122°31'0 0.0
2014-Apr-11 04:27N 47°37' W 122°31'0 0.0
2014-Apr-11 03:33N 47°37' W 122°31'0 0.0
2014-Apr-11 02:27N 47°37' W 122°31'0 0.0
2014-Apr-11 01:33N 47°37' W 122°31'0 0.0
2014-Apr-11 00:33N 47°37' W 122°31'0 0.0
2014-Apr-10 23:33N 47°37' W 122°31'0 0.0
2014-Apr-10 22:33N 47°37' W 122°31'0 0.0
2014-Apr-10 21:33N 47°37' W 122°31'0 0.0
2014-Apr-10 21:09N 47°37' W 122°31'0 0.0
2014-Apr-10 20:33N 47°37' W 122°31'0 0.0
2014-Apr-10 20:09N 47°37' W 122°31'0 0.0
2014-Apr-10 19:33N 47°37' W 122°31'0 3.3
2014-Apr-10 19:30N 47°37' W 122°31'6 5.9
2014-Apr-10 18:33N 47°40' W 122°24'0 0.2
2014-Apr-10 18:19N 47°40' W 122°24'  

Dump ship's entire track history

sailing weather and tide predictions

Zero Trim — WCY3091 — position and weather